Time,TemperatureF,DewpointF,PressureIn,WindDirection,WindDirectionDegrees,WindSpeedMPH,WindSpeedGustMPH,Humidity,HourlyPrecipIn,Conditions,Clouds,dailyrainin,SoftwareType,DateUTC
2013-03-21 00:11:00,41.3,19.0,30.05,ESE,107,3.0,-999.0,41,-99.99,,,0.00,weatherlink.com 1.10,2013-03-21 05:11:00,
2013-03-21 00:26:00,41.2,20.0,30.05,ESE,115,0.0,-999.0,42,-99.99,,,0.00,weatherlink.com 1.10,2013-03-21 05:26:00,
2013-03-21 00:42:00,41.2,20.0,30.05,ESE,104,2.0,-999.0,42,-99.99,,,0.00,weatherlink.com 1.10,2013-03-21 05:42:00,
2013-03-21 00:56:00,41.1,20.0,30.04,East,85,5.0,-999.0,43,-99.99,,,0.00,weatherlink.com 1.10,2013-03-21 05:56:00,
2013-03-21 01:11:00,41.1,20.0,30.02,East,84,1.0,-999.0,43,-99.99,,,0.00,weatherlink.com 1.10,2013-03-21 06:11:00,
2013-03-21 01:27:00,-999.0,-99.9,30.00,North,-999,-999.0,-999.0,-999,-99.99,,,0.00,weatherlink.com 1.10,2013-03-21 06:27:00,
2013-03-21 01:41:00,-999.0,-99.9,29.99,North,-999,-999.0,-999.0,-999,-99.99,,,0.00,weatherlink.com 1.10,2013-03-21 06:41:00,
2013-03-21 01:56:00,39.8,21.0,29.99,East,86,1.0,-999.0,47,-99.99,,,0.00,weatherlink.com 1.10,2013-03-21 06:56:00,
2013-03-21 02:11:00,39.5,21.0,29.99,East,95,3.0,-999.0,47,-99.99,,,0.00,weatherlink.com 1.10,2013-03-21 07:11:00,
2013-03-21 02:26:00,39.1,21.0,29.98,East,88,4.0,-999.0,48,-99.99,,,0.00,weatherlink.com 1.10,2013-03-21 07:26:00,
2013-03-21 02:41:00,38.8,21.0,29.98,East,87,3.0,-999.0,49,-99.99,,,0.00,weatherlink.com 1.10,2013-03-21 07:41:00,
2013-03-21 02:56:00,38.5,21.0,29.97,ENE,76,2.0,-999.0,49,-99.99,,,0.00,weatherlink.com 1.10,2013-03-21 07:56:00,
2013-03-21 03:11:00,38.3,20.0,29.97,East,86,0.0,-999.0,49,-99.99,,,0.00,weatherlink.com 1.10,2013-03-21 08:11:00,
2013-03-21 03:26:00,38.2,19.0,29.97,East,90,2.0,-999.0,47,-99.99,,,0.00,weatherlink.com 1.10,2013-03-21 08:26:00,
2013-03-21 03:41:00,38.0,19.0,29.97,East,98,1.0,-999.0,47,-99.99,,,0.00,weatherlink.com 1.10,2013-03-21 08:41:00,
2013-03-21 03:56:00,37.9,19.0,29.97,East,87,2.0,-999.0,47,-99.99,,,0.00,weatherlink.com 1.10,2013-03-21 08:56:00,
2013-03-21 04:11:00,37.9,19.0,29.96,East,84,1.0,-999.0,47,-99.99,,,0.00,weatherlink.com 1.10,2013-03-21 09:11:00,
2013-03-21 04:26:00,37.8,20.0,29.95,ENE,63,4.0,-999.0,48,-99.99,,,0.00,weatherlink.com 1.10,2013-03-21 09:26:00,
2013-03-21 04:41:00,37.6,19.0,29.94,East,96,4.0,-999.0,48,-99.99,,,0.00,weatherlink.com 1.10,2013-03-21 09:41:00,
2013-03-21 04:56:00,37.5,20.0,29.93,East,84,2.0,-999.0,49,-99.99,,,0.00,weatherlink.com 1.10,2013-03-21 09:56:00,
2013-03-21 05:11:00,37.5,20.0,29.94,East,81,3.0,-999.0,50,-99.99,,,0.00,weatherlink.com 1.10,2013-03-21 10:11:00,
2013-03-21 05:26:00,37.6,20.0,29.94,East,100,4.0,-999.0,49,-99.99,,,0.00,weatherlink.com 1.10,2013-03-21 10:26:00,
2013-03-21 05:41:00,37.8,20.0,29.94,East,90,4.0,-999.0,48,-99.99,,,0.00,weatherlink.com 1.10,2013-03-21 10:41:00,
2013-03-21 05:56:00,37.8,20.0,29.93,East,82,4.0,-999.0,48,-99.99,,,0.00,weatherlink.com 1.10,2013-03-21 10:56:00,
2013-03-21 06:11:00,37.9,20.0,29.93,East,93,10.0,-999.0,48,-99.99,,,0.00,weatherlink.com 1.10,2013-03-21 11:11:00,
2013-03-21 06:26:00,38.0,20.0,29.93,East,94,4.0,-999.0,48,-99.99,,,0.00,weatherlink.com 1.10,2013-03-21 11:26:00,
2013-03-21 06:41:00,38.2,20.0,29.93,ENE,74,2.0,-999.0,48,-99.99,,,0.00,weatherlink.com 1.10,2013-03-21 11:41:00,
2013-03-21 06:56:00,38.3,20.0,29.93,ESE,120,2.0,-999.0,48,-99.99,,,0.00,weatherlink.com 1.10,2013-03-21 11:56:00,
2013-03-21 07:11:00,38.6,20.0,29.93,East,94,4.0,-999.0,47,-99.99,,,0.00,weatherlink.com 1.10,2013-03-21 12:11:00,
2013-03-21 07:26:00,38.6,20.0,29.92,East,93,1.0,-999.0,47,-99.99,,,0.00,weatherlink.com 1.10,2013-03-21 12:26:00,
2013-03-21 07:41:00,38.5,20.0,29.92,East,86,2.0,-999.0,48,-99.99,,,0.00,weatherlink.com 1.10,2013-03-21 12:41:00,
2013-03-21 07:56:00,38.6,21.0,29.93,East,93,3.0,-999.0,49,-99.99,,,0.00,weatherlink.com 1.10,2013-03-21 12:56:00,
2013-03-21 08:11:00,39.2,21.0,29.93,East,94,4.0,-999.0,48,-99.99,,,0.00,weatherlink.com 1.10,2013-03-21 13:11:00,
2013-03-21 08:26:00,39.8,21.0,29.92,ENE,70,8.0,-999.0,47,-99.99,,,0.00,weatherlink.com 1.10,2013-03-21 13:26:00,
2013-03-21 08:41:00,40.3,20.0,29.91,East,86,2.0,-999.0,45,-99.99,,,0.00,weatherlink.com 1.10,2013-03-21 13:41:00,
2013-03-21 08:56:00,40.6,20.0,29.91,East,87,5.0,-999.0,44,-99.99,,,0.00,weatherlink.com 1.10,2013-03-21 13:56:00,
2013-03-21 09:11:00,40.6,22.0,29.91,ESE,120,12.0,-999.0,47,-99.99,,,0.00,weatherlink.com 1.10,2013-03-21 14:11:00,
2013-03-21 09:26:00,40.6,22.0,29.90,ESE,115,4.0,-999.0,48,-99.99,,,0.00,weatherlink.com 1.10,2013-03-21 14:26:00,
2013-03-21 09:41:00,40.8,23.0,29.90,ESE,123,9.0,-999.0,49,-99.99,,,0.00,weatherlink.com 1.10,2013-03-21 14:41:00,
2013-03-21 09:56:00,41.1,23.0,29.90,SE,140,9.0,-999.0,49,-99.99,,,0.00,weatherlink.com 1.10,2013-03-21 14:56:00,
2013-03-21 10:11:00,41.1,24.0,29.90,SE,132,6.0,-999.0,50,-99.99,,,0.00,weatherlink.com 1.10,2013-03-21 15:11:00,
2013-03-21 10:26:00,41.1,24.0,29.89,ESE,103,7.0,-999.0,51,-99.99,,,0.00,weatherlink.com 1.10,2013-03-21 15:26:00,
2013-03-21 10:41:00,40.9,24.0,29.89,SE,130,7.0,-999.0,52,-99.99,,,0.00,weatherlink.com 1.10,2013-03-21 15:41:00,
2013-03-21 10:56:00,40.8,23.0,29.88,SSE,153,11.0,-999.0,50,-99.99,,,0.00,weatherlink.com 1.10,2013-03-21 15:56:00,
2013-03-21 11:11:00,40.9,23.0,29.86,SE,138,9.0,-999.0,50,-99.99,,,0.00,weatherlink.com 1.10,2013-03-21 16:11:00,
2013-03-21 11:26:00,40.9,22.0,29.87,East,98,9.0,-999.0,48,-99.99,,,0.00,weatherlink.com 1.10,2013-03-21 16:26:00,
2013-03-21 11:41:00,41.2,23.0,29.86,SE,130,4.0,-999.0,48,-99.99,,,0.00,weatherlink.com 1.10,2013-03-21 16:41:00,
2013-03-21 11:57:00,41.9,24.0,29.85,ESE,115,14.0,-999.0,49,-99.99,,,0.00,weatherlink.com 1.10,2013-03-21 16:57:00,
2013-03-21 12:11:00,42.5,24.0,29.85,ESE,107,11.0,-999.0,48,-99.99,,,0.00,weatherlink.com 1.10,2013-03-21 17:11:00,
2013-03-21 12:26:00,41.5,25.0,29.85,SSE,157,9.0,-999.0,52,-99.99,,,0.00,weatherlink.com 1.10,2013-03-21 17:26:00,
2013-03-21 12:56:00,38.0,29.0,29.84,SE,126,2.0,-999.0,71,-99.99,,,0.04,weatherlink.com 1.10,2013-03-21 17:56:00,
2013-03-21 13:11:00,38.2,31.0,29.83,East,99,10.0,-999.0,74,-99.99,,,0.04,weatherlink.com 1.10,2013-03-21 18:11:00,
2013-03-21 13:26:00,38.6,31.0,29.82,SE,137,0.0,-999.0,75,-99.99,,,0.04,weatherlink.com 1.10,2013-03-21 18:26:00,
2013-03-21 13:42:00,39.1,31.0,29.81,SE,135,9.0,-999.0,73,-99.99,,,0.04,weatherlink.com 1.10,2013-03-21 18:42:00,
2013-03-21 13:57:00,39.6,31.0,29.79,SE,139,3.0,-999.0,72,-99.99,,,0.04,weatherlink.com 1.10,2013-03-21 18:57:00,
2013-03-21 14:11:00,40.2,30.0,29.79,SE,135,7.0,-999.0,68,-99.99,,,0.04,weatherlink.com 1.10,2013-03-21 19:11:00,
2013-03-21 14:26:00,40.6,30.0,29.78,SE,141,6.0,-999.0,65,-99.99,,,0.04,weatherlink.com 1.10,2013-03-21 19:26:00,
2013-03-21 14:42:00,40.5,29.0,29.77,ESE,113,10.0,-999.0,63,-99.99,,,0.04,weatherlink.com 1.10,2013-03-21 19:42:00,
2013-03-21 14:57:00,40.1,28.0,29.77,East,101,3.0,-999.0,63,-99.99,,,0.04,weatherlink.com 1.10,2013-03-21 19:57:00,
2013-03-21 15:12:00,40.5,29.0,29.75,ENE,63,3.0,-999.0,63,-99.99,,,0.04,weatherlink.com 1.10,2013-03-21 20:12:00,
2013-03-21 15:27:00,40.8,29.0,29.74,ESE,113,7.0,-999.0,64,-99.99,,,0.04,weatherlink.com 1.10,2013-03-21 20:27:00,
2013-03-21 16:12:00,40.8,30.0,29.73,ESE,119,3.0,-999.0,66,-99.99,,,0.04,weatherlink.com 1.10,2013-03-21 21:12:00,
2013-03-21 16:26:00,40.6,30.0,29.74,ESE,121,0.0,-999.0,67,-99.99,,,0.04,weatherlink.com 1.10,2013-03-21 21:26:00,
2013-03-21 16:42:00,40.5,30.0,29.75,SE,129,11.0,-999.0,67,-99.99,,,0.04,weatherlink.com 1.10,2013-03-21 21:42:00,
2013-03-21 16:56:00,39.9,30.0,29.74,SSE,150,5.0,-999.0,68,-99.99,,,0.04,weatherlink.com 1.10,2013-03-21 21:56:00,
2013-03-21 17:12:00,39.9,30.0,29.74,SE,131,0.0,-999.0,69,-99.99,,,0.04,weatherlink.com 1.10,2013-03-21 22:12:00,
2013-03-21 17:27:00,40.1,31.0,29.73,ESE,106,6.0,-999.0,69,-99.99,,,0.04,weatherlink.com 1.10,2013-03-21 22:27:00,
2013-03-21 17:42:00,40.1,31.0,29.73,East,92,11.0,-999.0,69,-99.99,,,0.04,weatherlink.com 1.10,2013-03-21 22:42:00,
2013-03-21 17:57:00,40.1,31.0,29.73,East,100,3.0,-999.0,69,-99.99,,,0.04,weatherlink.com 1.10,2013-03-21 22:57:00,
2013-03-21 18:12:00,40.1,31.0,29.73,ESE,123,3.0,-999.0,69,-99.99,,,0.04,weatherlink.com 1.10,2013-03-21 23:12:00,
2013-03-21 18:27:00,39.9,30.0,29.73,East,92,2.0,-999.0,69,-99.99,,,0.04,weatherlink.com 1.10,2013-03-21 23:27:00,
2013-03-21 18:42:00,39.9,31.0,29.74,ESE,112,4.0,-999.0,70,-99.99,,,0.04,weatherlink.com 1.10,2013-03-21 23:42:00,
2013-03-21 18:57:00,39.8,31.0,29.74,East,92,5.0,-999.0,70,-99.99,,,0.04,weatherlink.com 1.10,2013-03-21 23:57:00,
2013-03-21 19:12:00,39.5,31.0,29.75,ENE,69,8.0,-999.0,72,-99.99,,,0.04,weatherlink.com 1.10,2013-03-22 00:12:00,
2013-03-21 19:27:00,39.3,31.0,29.75,ENE,69,9.0,-999.0,73,-99.99,,,0.04,weatherlink.com 1.10,2013-03-22 00:27:00,
2013-03-21 19:42:00,39.1,31.0,29.75,NE,45,4.0,-999.0,73,-99.99,,,0.04,weatherlink.com 1.10,2013-03-22 00:42:00,
2013-03-21 19:57:00,38.8,31.0,29.76,East,93,3.0,-999.0,73,-99.99,,,0.04,weatherlink.com 1.10,2013-03-22 00:57:00,
2013-03-21 20:11:00,38.8,31.0,29.76,ENE,76,6.0,-999.0,73,-99.99,,,0.04,weatherlink.com 1.10,2013-03-22 01:11:00,
2013-03-21 20:27:00,38.8,31.0,29.76,ESE,103,5.0,-999.0,74,-99.99,,,0.04,weatherlink.com 1.10,2013-03-22 01:27:00,
2013-03-21 20:41:00,38.9,31.0,29.75,ESE,109,4.0,-999.0,74,-99.99,,,0.04,weatherlink.com 1.10,2013-03-22 01:41:00,
2013-03-21 20:57:00,39.1,31.0,29.76,ENE,73,10.0,-999.0,74,-99.99,,,0.04,weatherlink.com 1.10,2013-03-22 01:57:00,
2013-03-21 21:12:00,39.1,31.0,29.76,East,90,0.0,-999.0,74,-99.99,,,0.04,weatherlink.com 1.10,2013-03-22 02:12:00,
2013-03-21 21:27:00,38.9,32.0,29.77,East,88,4.0,-999.0,75,-99.99,,,0.04,weatherlink.com 1.10,2013-03-22 02:27:00,
2013-03-21 21:42:00,39.1,32.0,29.77,East,80,9.0,-999.0,75,-99.99,,,0.04,weatherlink.com 1.10,2013-03-22 02:42:00,
2013-03-21 21:57:00,38.9,32.0,29.77,East,92,6.0,-999.0,75,-99.99,,,0.04,weatherlink.com 1.10,2013-03-22 02:57:00,
2013-03-21 22:12:00,38.9,32.0,29.77,ENE,76,2.0,-999.0,75,-99.99,,,0.04,weatherlink.com 1.10,2013-03-22 03:12:00,
2013-03-21 22:27:00,39.1,32.0,29.78,ESE,110,4.0,-999.0,76,-99.99,,,0.04,weatherlink.com 1.10,2013-03-22 03:27:00,
2013-03-21 22:42:00,39.1,32.0,29.78,ENE,70,9.0,-999.0,76,-99.99,,,0.04,weatherlink.com 1.10,2013-03-22 03:42:00,
2013-03-21 22:57:00,39.1,32.0,29.79,ENE,78,4.0,-999.0,77,-99.99,,,0.04,weatherlink.com 1.10,2013-03-22 03:57:00,
2013-03-21 23:12:00,38.8,33.0,29.78,ENE,67,0.0,-999.0,79,-99.99,,,0.04,weatherlink.com 1.10,2013-03-22 04:12:00,
2013-03-21 23:27:00,38.6,33.0,29.78,ENE,71,3.0,-999.0,80,-99.99,,,0.04,weatherlink.com 1.10,2013-03-22 04:27:00,
2013-03-21 23:42:00,38.5,33.0,29.77,East,81,2.0,-999.0,81,-99.99,,,0.04,weatherlink.com 1.10,2013-03-22 04:42:00,
2013-03-21 23:57:00,38.3,33.0,29.78,East,96,3.0,-999.0,81,-99.99,,,0.04,weatherlink.com 1.10,2013-03-22 04:57:00,